Time;durP1;ratioP1;P1;durP2;ratioP2;P2;SDS_P1;SDS_P2;PMS_P1;PMS_P2;Temp;Humidity;BMP_temperature;BMP_pressure;BME280_temperature;BME280_humidity;BME280_pressure;Samples;Min_cycle;Max_cycle;Signal;HPM_P1;HPM_P2
2022/03/12 00:00:09;;;;;;;;;;;20.20;29.80;;;;;;688696;28;806;-82
2022/03/12 00:00:30;;;;;;;;;;;20.20;29.70;;;;;;688823;28;940;-81
2022/03/12 00:00:51;;;;;;;;;;;20.20;29.70;;;;;;688632;28;853;-81
2022/03/12 00:01:13;;;;;;;;;;;20.20;29.70;;;;;;688603;28;826;-81
2022/03/12 00:01:34;;;;;;;;;;;20.20;29.80;;;;;;688538;28;834;-80
2022/03/12 00:01:55;;;;;;;;;;;20.20;29.70;;;;;;688690;28;779;-81
2022/03/12 00:02:15;;;;;;;;;;;20.20;29.60;;;;;;688691;28;881;-81
2022/03/12 00:02:36;;;;;;;;;;;20.20;29.70;;;;;;688820;28;795;-82
2022/03/12 00:02:57;;;;;;;;;;;20.20;29.80;;;;;;688874;28;1403;-81
2022/03/12 00:03:18;;;;;;;;;;;20.20;29.70;;;;;;688660;28;1246;-81
2022/03/12 00:03:38;;;;;;;;;;;20.20;29.70;;;;;;688376;28;1407;-80
2022/03/12 00:04:00;;;;;;;;;;;20.20;29.70;;;;;;688488;28;1285;-81
2022/03/12 00:04:20;;;;;;;;;;;20.20;29.70;;;;;;688506;28;1213;-82
2022/03/12 00:04:42;;;;;;;;;;;20.20;29.70;;;;;;688608;28;1247;-80
2022/03/12 00:05:07;;;;;;;;;;;20.20;29.70;;;;;;688225;28;1334;-80
2022/03/12 00:05:35;;;;;;;;;;;20.20;29.60;;;;;;686219;28;885;-79
2022/03/12 00:05:56;;;;;;;;;;;20.20;29.70;;;;;;686059;28;847;-81
2022/03/12 00:06:18;;;;;;;;;;;20.20;30.10;;;;;;686154;28;850;-80
2022/03/12 00:06:38;;;;;;;;;;;20.20;29.80;;;;;;686131;28;857;-81
2022/03/12 00:06:59;;;;;;;;;;;20.20;29.60;;;;;;686127;28;889;-80
2022/03/12 00:07:20;;;;;;;;;;;20.20;29.70;;;;;;686155;28;818;-80
2022/03/12 00:07:41;;;;;;;;;;;20.20;29.70;;;;;;686145;28;779;-81
2022/03/12 00:08:04;;;;;;;;;;;20.20;29.60;;;;;;686822;28;1296;-81
2022/03/12 00:08:42;;;;;;;;;;;20.20;29.50;;;;;;688646;28;1211;-80
2022/03/12 00:09:03;;;;;;;;;;;20.20;29.60;;;;;;686179;28;849;-80
2022/03/12 00:09:23;;;;;;;;;;;20.20;29.70;;;;;;686102;28;842;-80
2022/03/12 00:09:44;;;;;;;;;;;20.20;29.50;;;;;;686089;28;1053;-80
2022/03/12 00:10:05;;;;;;;;;;;20.20;29.50;;;;;;688440;28;1334;-81
2022/03/12 00:10:32;;;;;;;;;;;20.20;29.60;;;;;;688598;28;1329;-80
2022/03/12 00:10:53;;;;;;;;;;;20.20;29.50;;;;;;686184;28;854;-79
2022/03/12 00:11:15;;;;;;;;;;;20.20;29.60;;;;;;686090;28;779;-80
2022/03/12 00:11:45;;;;;;;;;;;20.20;29.60;;;;;;687940;28;1367;-80
2022/03/12 00:12:07;;;;;;;;;;;20.20;29.50;;;;;;688473;28;1309;-80
2022/03/12 00:12:36;;;;;;;;;;;20.20;29.50;;;;;;688622;28;865;-79
2022/03/12 00:12:56;;;;;;;;;;;20.20;29.60;;;;;;688574;28;1974;-80
2022/03/12 00:13:20;;;;;;;;;;;20.20;29.50;;;;;;688567;28;829;-80
2022/03/12 00:13:40;;;;;;;;;;;20.20;29.50;;;;;;686173;28;920;-80
2022/03/12 00:14:03;;;;;;;;;;;20.20;29.50;;;;;;686024;28;878;-80
2022/03/12 00:14:28;;;;;;;;;;;20.20;29.50;;;;;;686108;28;814;-81
2022/03/12 00:14:49;;;;;;;;;;;20.20;29.50;;;;;;688478;28;1190;-79
2022/03/12 00:15:12;;;;;;;;;;;20.20;29.50;;;;;;688501;28;838;-81
2022/03/12 00:15:33;;;;;;;;;;;20.20;29.60;;;;;;688614;28;925;-80
2022/03/12 00:15:59;;;;;;;;;;;20.20;29.60;;;;;;688355;28;1310;-80
2022/03/12 00:16:24;;;;;;;;;;;20.20;29.60;;;;;;688158;28;1313;-79
2022/03/12 00:16:45;;;;;;;;;;;20.20;29.50;;;;;;685836;28;1225;-80
2022/03/12 00:17:07;;;;;;;;;;;20.20;29.80;;;;;;685773;28;878;-81
2022/03/12 00:17:29;;;;;;;;;;;20.20;29.40;;;;;;685844;28;826;-81
2022/03/12 00:17:50;;;;;;;;;;;20.20;29.50;;;;;;687055;28;1306;-80
2022/03/12 00:18:11;;;;;;;;;;;20.20;29.40;;;;;;688197;28;1315;-80
2022/03/12 00:18:36;;;;;;;;;;;20.20;29.30;;;;;;688957;28;1264;-80
2022/03/12 00:18:58;;;;;;;;;;;20.20;29.30;;;;;;689807;28;1151;-80
2022/03/12 00:19:20;;;;;;;;;;;20.20;29.40;;;;;;686259;28;1275;-81
2022/03/12 00:19:40;;;;;;;;;;;20.20;29.50;;;;;;687380;28;1262;-80
2022/03/12 00:20:02;;;;;;;;;;;20.20;29.20;;;;;;689401;28;1254;-80
2022/03/12 00:20:28;;;;;;;;;;;20.20;29.30;;;;;;688503;28;1223;-80
2022/03/12 00:20:50;;;;;;;;;;;20.10;29.30;;;;;;683719;28;881;-80
2022/03/12 00:21:12;;;;;;;;;;;20.20;29.30;;;;;;683078;28;1305;-80
2022/03/12 00:21:42;;;;;;;;;;;20.10;29.40;;;;;;686759;28;1255;-80
2022/03/12 00:22:04;;;;;;;;;;;20.10;29.30;;;;;;685809;28;1438;-83
2022/03/12 00:22:28;;;;;;;;;;;20.10;29.30;;;;;;685781;28;831;-81
2022/03/12 00:22:56;;;;;;;;;;;20.10;29.40;;;;;;685816;28;1314;-81
2022/03/12 00:23:18;;;;;;;;;;;20.20;29.60;;;;;;685867;28;1317;-81
2022/03/12 00:23:41;;;;;;;;;;;20.20;30.30;;;;;;683171;28;870;-81
2022/03/12 00:24:03;;;;;;;;;;;20.10;29.30;;;;;;685698;28;897;-80
2022/03/12 00:24:25;;;;;;;;;;;20.10;29.30;;;;;;685854;28;858;-81
2022/03/12 00:24:47;;;;;;;;;;;20.10;29.30;;;;;;687980;28;977;-80
2022/03/12 00:25:10;;;;;;;;;;;20.10;29.30;;;;;;688189;28;1242;-80
2022/03/12 00:25:32;;;;;;;;;;;20.10;29.30;;;;;;688144;28;830;-80
2022/03/12 00:25:53;;;;;;;;;;;20.10;29.30;;;;;;688289;28;1242;-80
2022/03/12 00:26:15;;;;;;;;;;;20.10;29.20;;;;;;685473;28;1466;-80
2022/03/12 00:26:40;;;;;;;;;;;20.10;29.20;;;;;;685785;28;1267;-80
2022/03/12 00:27:01;;;;;;;;;;;20.10;29.10;;;;;;687414;28;957;-80
2022/03/12 00:27:22;;;;;;;;;;;20.10;29.10;;;;;;688516;28;806;-79
2022/03/12 00:27:43;;;;;;;;;;;20.10;29.10;;;;;;688636;28;783;-79
2022/03/12 00:28:05;;;;;;;;;;;20.10;29.20;;;;;;687021;28;1274;-79
2022/03/12 00:28:26;;;;;;;;;;;20.10;29.10;;;;;;688641;28;912;-79
2022/03/12 00:28:47;;;;;;;;;;;20.10;29.20;;;;;;688640;28;826;-78
2022/03/12 00:29:14;;;;;;;;;;;20.10;29.10;;;;;;688509;28;806;-81
2022/03/12 00:29:35;;;;;;;;;;;20.10;29.10;;;;;;688425;28;866;-79
2022/03/12 00:29:56;;;;;;;;;;;20.10;29.10;;;;;;685755;28;1209;-80
2022/03/12 00:30:21;;;;;;;;;;;20.10;29.10;;;;;;687302;28;1475;-81
2022/03/12 00:30:45;;;;;;;;;;;20.10;29.10;;;;;;689627;28;1364;-80
2022/03/12 00:31:06;;;;;;;;;;;20.10;29.10;;;;;;688517;28;905;-80
2022/03/12 00:31:26;;;;;;;;;;;20.10;29.10;;;;;;688534;28;961;-80
2022/03/12 00:31:50;;;;;;;;;;;20.10;29.10;;;;;;688661;28;803;-79
2022/03/12 00:32:14;;;;;;;;;;;20.10;29.10;;;;;;688528;28;1432;-79
2022/03/12 00:32:37;;;;;;;;;;;20.10;29.10;;;;;;691088;28;1197;-81
2022/03/12 00:32:57;;;;;;;;;;;20.10;29.10;;;;;;690931;28;1886;-80
2022/03/12 00:33:19;;;;;;;;;;;20.10;29.10;;;;;;691231;28;995;-80
2022/03/12 00:33:39;;;;;;;;;;;20.10;29.10;;;;;;691029;28;1266;-79
2022/03/12 00:34:00;;;;;;;;;;;20.10;29.10;;;;;;691267;28;858;-78
2022/03/12 00:34:20;;;;;;;;;;;20.10;29.10;;;;;;690437;28;1345;-81
2022/03/12 00:34:41;;;;;;;;;;;20.10;29.10;;;;;;688718;28;975;-78
2022/03/12 00:35:05;;;;;;;;;;;20.10;29.10;;;;;;688514;28;1297;-78
2022/03/12 00:35:26;;;;;;;;;;;20.10;29.10;;;;;;688270;28;1286;-80
2022/03/12 00:35:47;;;;;;;;;;;20.10;29.10;;;;;;688472;28;862;-81
2022/03/12 00:36:08;;;;;;;;;;;20.10;29.10;;;;;;688491;28;934;-80
2022/03/12 00:36:28;;;;;;;;;;;20.10;29.10;;;;;;688543;28;787;-80
2022/03/12 00:36:49;;;;;;;;;;;20.10;29.00;;;;;;688589;28;819;-79
2022/03/12 00:37:10;;;;;;;;;;;20.10;29.10;;;;;;688854;28;870;-79
2022/03/12 00:37:30;;;;;;;;;;;20.10;29.00;;;;;;691267;28;826;-79
2022/03/12 00:37:51;;;;;;;;;;;20.10;29.10;;;;;;691234;28;802;-79
2022/03/12 00:38:12;;;;;;;;;;;20.10;29.00;;;;;;688800;28;1263;-79
2022/03/12 00:38:32;;;;;;;;;;;20.10;29.00;;;;;;688522;28;889;-79
2022/03/12 00:38:53;;;;;;;;;;;20.10;29.10;;;;;;688579;28;815;-78
2022/03/12 00:39:14;;;;;;;;;;;20.10;29.20;;;;;;688411;28;1189;-78
2022/03/12 00:39:35;;;;;;;;;;;20.10;29.20;;;;;;688528;28;806;-80
2022/03/12 00:39:56;;;;;;;;;;;20.00;29.20;;;;;;688583;28;865;-81
2022/03/12 00:40:19;;;;;;;;;;;20.10;29.50;;;;;;688711;28;802;-81
2022/03/12 00:40:39;;;;;;;;;;;20.10;29.10;;;;;;688751;28;791;-80
2022/03/12 00:41:03;;;;;;;;;;;20.00;29.10;;;;;;688781;28;888;-80
2022/03/12 00:41:25;;;;;;;;;;;20.10;29.10;;;;;;688715;28;873;-79
2022/03/12 00:41:47;;;;;;;;;;;20.10;29.00;;;;;;688787;28;886;-81
2022/03/12 00:42:08;;;;;;;;;;;20.00;29.10;;;;;;688757;28;874;-80
2022/03/12 00:42:29;;;;;;;;;;;20.00;29.00;;;;;;688751;28;908;-79
2022/03/12 00:42:49;;;;;;;;;;;20.00;29.00;;;;;;688686;28;925;-80
2022/03/12 00:43:11;;;;;;;;;;;20.00;29.00;;;;;;688704;28;872;-80
2022/03/12 00:43:31;;;;;;;;;;;20.00;29.00;;;;;;688396;28;1117;-79
2022/03/12 00:43:52;;;;;;;;;;;20.00;29.00;;;;;;688372;28;1079;-79
2022/03/12 00:44:14;;;;;;;;;;;20.10;29.10;;;;;;688567;28;838;-80
2022/03/12 00:44:35;;;;;;;;;;;20.00;29.10;;;;;;688468;28;1351;-81
2022/03/12 00:44:55;;;;;;;;;;;20.00;29.00;;;;;;688295;28;1302;-80
2022/03/12 00:45:19;;;;;;;;;;;20.00;29.10;;;;;;688485;28;926;-80
2022/03/12 00:45:40;;;;;;;;;;;20.00;29.00;;;;;;685991;28;811;-81
2022/03/12 00:46:01;;;;;;;;;;;20.00;29.00;;;;;;687120;28;1236;-81
2022/03/12 00:46:22;;;;;;;;;;;20.00;29.00;;;;;;687593;28;1208;-80
2022/03/12 00:46:43;;;;;;;;;;;20.00;29.00;;;;;;688649;28;842;-81
2022/03/12 00:47:04;;;;;;;;;;;20.00;28.90;;;;;;687905;28;1452;-80
2022/03/12 00:47:26;;;;;;;;;;;20.10;29.00;;;;;;687662;28;1674;-81
2022/03/12 00:47:49;;;;;;;;;;;20.00;29.00;;;;;;687451;28;1626;-79
2022/03/12 00:48:10;;;;;;;;;;;20.00;28.90;;;;;;686023;28;908;-79
2022/03/12 00:48:32;;;;;;;;;;;20.00;28.90;;;;;;687766;28;1374;-79
2022/03/12 00:48:53;;;;;;;;;;;20.00;29.00;;;;;;688083;28;1326;-79
2022/03/12 00:49:13;;;;;;;;;;;20.00;28.90;;;;;;687546;28;1227;-80
2022/03/12 00:49:34;;;;;;;;;;;20.00;29.00;;;;;;688670;28;850;-80
2022/03/12 00:49:55;;;;;;;;;;;20.00;29.00;;;;;;688366;28;1255;-80
2022/03/12 00:50:16;;;;;;;;;;;20.00;29.00;;;;;;688712;28;1475;-79
2022/03/12 00:50:37;;;;;;;;;;;20.00;29.10;;;;;;688420;28;1239;-80
2022/03/12 00:50:57;;;;;;;;;;;20.00;29.00;;;;;;688328;28;1334;-80
2022/03/12 00:51:18;;;;;;;;;;;20.00;29.00;;;;;;688578;28;838;-80
2022/03/12 00:51:38;;;;;;;;;;;20.00;29.00;;;;;;688559;28;867;-79
2022/03/12 00:51:59;;;;;;;;;;;20.00;29.00;;;;;;688406;28;760;-79
2022/03/12 00:52:20;;;;;;;;;;;20.00;29.10;;;;;;688505;28;1310;-80
2022/03/12 00:52:40;;;;;;;;;;;20.00;29.00;;;;;;688700;28;1215;-79
2022/03/12 00:53:01;;;;;;;;;;;20.00;29.00;;;;;;688185;28;1961;-81
2022/03/12 00:53:21;;;;;;;;;;;20.00;28.90;;;;;;688467;28;1391;-79
2022/03/12 00:53:42;;;;;;;;;;;20.00;29.00;;;;;;688489;28;763;-81
2022/03/12 00:54:02;;;;;;;;;;;20.00;29.00;;;;;;685891;28;1448;-80
2022/03/12 00:54:23;;;;;;;;;;;20.00;29.10;;;;;;685695;28;1307;-79
2022/03/12 00:54:44;;;;;;;;;;;20.00;29.20;;;;;;685749;28;1430;-80
2022/03/12 00:55:05;;;;;;;;;;;20.00;29.30;;;;;;685773;28;919;-79
2022/03/12 00:55:25;;;;;;;;;;;20.00;29.10;;;;;;685821;28;878;-80
2022/03/12 00:55:46;;;;;;;;;;;20.00;29.10;;;;;;686094;28;906;-79
2022/03/12 00:56:07;;;;;;;;;;;20.00;29.10;;;;;;688391;28;814;-80
2022/03/12 00:56:28;;;;;;;;;;;20.00;29.10;;;;;;688474;28;941;-80
2022/03/12 00:56:48;;;;;;;;;;;20.00;29.00;;;;;;691238;28;906;-81
2022/03/12 00:57:11;;;;;;;;;;;20.00;28.90;;;;;;691202;28;803;-80
2022/03/12 00:57:33;;;;;;;;;;;20.00;29.00;;;;;;690968;28;1437;-80
2022/03/12 00:57:54;;;;;;;;;;;21.60;29.80;;;;;;690977;28;1273;-80
2022/03/12 00:58:15;;;;;;;;;;;20.00;29.10;;;;;;691114;28;1265;-80
2022/03/12 00:58:45;;;;;;;;;;;20.00;29.10;;;;;;690366;28;822;-81
2022/03/12 00:59:06;;;;;;;;;;;20.00;29.10;;;;;;688641;28;839;-81
2022/03/12 00:59:26;;;;;;;;;;;20.00;29.10;;;;;;688479;28;1420;-80
2022/03/12 00:59:47;;;;;;;;;;;20.00;29.00;;;;;;688330;28;1208;-80
2022/03/12 01:00:12;;;;;;;;;;;20.00;29.00;;;;;;688534;28;1432;-80
2022/03/12 01:00:32;;;;;;;;;;;20.00;29.10;;;;;;688486;28;1258;-80
2022/03/12 01:00:53;;;;;;;;;;;20.00;29.10;;;;;;688756;28;850;-79
2022/03/12 01:01:14;;;;;;;;;;;20.00;29.10;;;;;;688466;28;1322;-80
2022/03/12 01:01:34;;;;;;;;;;;19.80;29.00;;;;;;688525;28;1259;-81
2022/03/12 01:01:55;;;;;;;;;;;20.00;29.00;;;;;;688324;28;1275;-80
2022/03/12 01:02:16;;;;;;;;;;;19.90;29.00;;;;;;688588;28;851;-80
2022/03/12 01:02:37;;;;;;;;;;;20.00;29.00;;;;;;688407;28;822;-80
2022/03/12 01:02:57;;;;;;;;;;;20.00;29.90;;;;;;688401;28;917;-80
2022/03/12 01:03:18;;;;;;;;;;;19.90;29.00;;;;;;686285;28;1232;-81
2022/03/12 01:03:39;;;;;;;;;;;20.00;29.20;;;;;;685555;28;1517;-80
2022/03/12 01:04:00;;;;;;;;;;;19.90;29.00;;;;;;685824;28;827;-80
2022/03/12 01:04:20;;;;;;;;;;;19.90;28.90;;;;;;685503;28;1401;-78
2022/03/12 01:04:42;;;;;;;;;;;19.90;29.00;;;;;;685576;28;1298;-79
2022/03/12 01:05:03;;;;;;;;;;;19.90;28.90;;;;;;686002;28;1243;-79
2022/03/12 01:05:44;;;;;;;;;;;19.90;29.00;;;;;;684744;28;1302;-80
2022/03/12 01:06:05;;;;;;;;;;;20.00;29.00;;;;;;682713;29;1296;-80
2022/03/12 01:06:26;;;;;;;;;;;20.00;29.00;;;;;;683116;29;948;-81
2022/03/12 01:06:49;;;;;;;;;;;19.90;28.90;;;;;;682898;29;1462;-80
2022/03/12 01:07:10;;;;;;;;;;;19.90;28.80;;;;;;682944;29;1135;-80
2022/03/12 01:07:30;;;;;;;;;;;20.00;28.90;;;;;;683142;29;882;-79
2022/03/12 01:07:51;;;;;;;;;;;19.90;28.90;;;;;;683085;29;815;-79
2022/03/12 01:08:12;;;;;;;;;;;19.90;28.80;;;;;;682501;29;1316;-79
2022/03/12 01:08:33;;;;;;;;;;;19.90;28.90;;;;;;682906;29;1371;-78
2022/03/12 01:08:54;;;;;;;;;;;19.90;28.90;;;;;;682994;29;1248;-79
2022/03/12 01:09:14;;;;;;;;;;;19.90;28.90;;;;;;682990;29;835;-80
2022/03/12 01:09:35;;;;;;;;;;;19.90;28.90;;;;;;682900;29;1280;-80
2022/03/12 01:09:56;;;;;;;;;;;19.90;28.90;;;;;;683064;29;1415;-79
2022/03/12 01:10:16;;;;;;;;;;;19.90;28.90;;;;;;682990;29;1347;-80
2022/03/12 01:10:37;;;;;;;;;;;19.90;29.00;;;;;;683046;29;815;-80
2022/03/12 01:11:04;;;;;;;;;;;19.90;28.90;;;;;;682967;29;895;-80
2022/03/12 01:11:24;;;;;;;;;;;19.90;28.90;;;;;;682738;29;1316;-80
2022/03/12 01:11:45;;;;;;;;;;;19.90;28.90;;;;;;683044;29;841;-81
2022/03/12 01:12:07;;;;;;;;;;;19.90;28.90;;;;;;682933;29;1586;-82
2022/03/12 01:12:27;;;;;;;;;;;19.90;28.90;;;;;;685124;28;1560;-81
2022/03/12 01:12:48;;;;;;;;;;;19.90;28.90;;;;;;685669;28;1971;-81
2022/03/12 01:13:08;;;;;;;;;;;19.90;28.80;;;;;;685673;28;729;-81
2022/03/12 01:13:29;;;;;;;;;;;19.90;28.90;;;;;;684057;28;1556;-81
2022/03/12 01:13:49;;;;;;;;;;;19.90;28.90;;;;;;680777;29;1552;-81
2022/03/12 01:14:10;;;;;;;;;;;19.90;28.90;;;;;;682941;29;1547;-79
2022/03/12 01:14:30;;;;;;;;;;;19.90;28.80;;;;;;676875;29;1752;-80
2022/03/12 01:14:51;;;;;;;;;;;19.90;28.80;;;;;;677805;29;807;-80
2022/03/12 01:15:12;;;;;;;;;;;19.90;28.80;;;;;;677579;29;843;-79
2022/03/12 01:15:34;;;;;;;;;;;19.90;28.70;;;;;;675095;29;1513;-80
2022/03/12 01:15:55;;;;;;;;;;;19.90;28.70;;;;;;677730;29;847;-80
2022/03/12 01:16:15;;;;;;;;;;;19.90;28.80;;;;;;678239;29;811;-80
2022/03/12 01:16:36;;;;;;;;;;;19.90;28.70;;;;;;680311;29;903;-79
2022/03/12 01:16:59;;;;;;;;;;;19.90;28.80;;;;;;680421;29;870;-81
2022/03/12 01:17:21;;;;;;;;;;;19.90;28.70;;;;;;681185;29;863;-80
2022/03/12 01:17:41;;;;;;;;;;;19.90;28.70;;;;;;682955;29;1300;-82
2022/03/12 01:18:02;;;;;;;;;;;19.90;28.70;;;;;;682805;29;1255;-80
2022/03/12 01:18:23;;;;;;;;;;;19.90;28.70;;;;;;682381;29;1450;-80
2022/03/12 01:18:43;;;;;;;;;;;19.90;28.70;;;;;;682909;29;1208;-79
2022/03/12 01:19:04;;;;;;;;;;;19.90;28.70;;;;;;682720;29;1280;-80
2022/03/12 01:19:25;;;;;;;;;;;19.90;28.70;;;;;;682935;29;863;-79
2022/03/12 01:19:46;;;;;;;;;;;19.90;28.80;;;;;;682869;29;1321;-80
2022/03/12 01:20:08;;;;;;;;;;;19.90;28.80;;;;;;683066;29;923;-79
2022/03/12 01:20:28;;;;;;;;;;;19.90;28.70;;;;;;682991;29;850;-80
2022/03/12 01:20:50;;;;;;;;;;;19.90;28.70;;;;;;683110;29;1036;-79
2022/03/12 01:21:14;;;;;;;;;;;19.90;28.60;;;;;;683038;29;787;-78
2022/03/12 01:21:35;;;;;;;;;;;19.90;28.70;;;;;;682884;29;1053;-78
2022/03/12 01:21:55;;;;;;;;;;;19.90;28.50;;;;;;683027;29;1067;-79
2022/03/12 01:22:20;;;;;;;;;;;19.90;28.60;;;;;;683024;29;891;-79
2022/03/12 01:22:41;;;;;;;;;;;19.90;28.60;;;;;;682996;29;902;-77
2022/03/12 01:23:02;;;;;;;;;;;19.90;28.60;;;;;;683008;29;870;-82
2022/03/12 01:23:24;;;;;;;;;;;19.90;28.60;;;;;;682959;29;886;-79
2022/03/12 01:23:46;;;;;;;;;;;19.90;28.60;;;;;;683038;29;772;-79
2022/03/12 01:24:07;;;;;;;;;;;19.80;28.60;;;;;;682993;29;875;-79
2022/03/12 01:24:28;;;;;;;;;;;19.90;28.60;;;;;;683002;29;1028;-81
2022/03/12 01:24:49;;;;;;;;;;;19.90;29.40;;;;;;683060;29;1104;-79
2022/03/12 01:25:09;;;;;;;;;;;19.90;28.50;;;;;;683014;29;851;-79
2022/03/12 01:25:30;;;;;;;;;;;19.90;28.50;;;;;;682721;29;1360;-80
2022/03/12 01:25:52;;;;;;;;;;;19.90;28.50;;;;;;682977;29;1387;-79
2022/03/12 01:26:13;;;;;;;;;;;19.90;28.60;;;;;;682649;29;1380;-78
2022/03/12 01:26:35;;;;;;;;;;;19.90;28.50;;;;;;682937;29;807;-79
2022/03/12 01:26:56;;;;;;;;;;;19.90;28.60;;;;;;683092;29;748;-80
2022/03/12 01:27:17;;;;;;;;;;;19.90;28.50;;;;;;683248;28;1437;-80
2022/03/12 01:27:37;;;;;;;;;;;19.90;28.60;;;;;;682687;28;1495;-79
2022/03/12 01:27:58;;;;;;;;;;;19.80;28.50;;;;;;682912;29;1260;-79
2022/03/12 01:28:19;;;;;;;;;;;19.80;28.50;;;;;;683087;29;846;-80
2022/03/12 01:28:39;;;;;;;;;;;19.80;28.50;;;;;;682847;29;1394;-80
2022/03/12 01:29:00;;;;;;;;;;;19.80;28.50;;;;;;683255;29;871;-80
2022/03/12 01:29:21;;;;;;;;;;;19.80;28.50;;;;;;682985;29;867;-79
2022/03/12 01:29:42;;;;;;;;;;;19.90;28.50;;;;;;682870;29;874;-80
2022/03/12 01:30:04;;;;;;;;;;;19.90;28.50;;;;;;683024;29;802;-81
2022/03/12 01:30:26;;;;;;;;;;;19.80;28.50;;;;;;682783;29;1391;-79
2022/03/12 01:30:46;;;;;;;;;;;19.80;28.50;;;;;;682918;29;1308;-79
2022/03/12 01:31:07;;;;;;;;;;;19.80;28.30;;;;;;682285;29;974;-80
2022/03/12 01:31:28;;;;;;;;;;;19.80;28.40;;;;;;683004;29;1166;-80
2022/03/12 01:31:49;;;;;;;;;;;19.80;28.40;;;;;;682487;29;1396;-80
2022/03/12 01:32:09;;;;;;;;;;;19.80;28.40;;;;;;680351;29;922;-79
2022/03/12 01:32:30;;;;;;;;;;;19.80;28.40;;;;;;680404;29;772;-79
2022/03/12 01:32:51;;;;;;;;;;;19.80;28.40;;;;;;680754;29;1967;-79
2022/03/12 01:33:11;;;;;;;;;;;19.80;28.40;;;;;;682834;29;1252;-79
2022/03/12 01:33:32;;;;;;;;;;;19.80;28.50;;;;;;682841;29;1282;-79
2022/03/12 01:33:53;;;;;;;;;;;19.80;28.40;;;;;;679931;29;926;-79
2022/03/12 01:34:13;;;;;;;;;;;19.80;28.40;;;;;;680405;29;815;-79
2022/03/12 01:34:34;;;;;;;;;;;19.80;28.50;;;;;;680287;29;887;-80
2022/03/12 01:34:54;;;;;;;;;;;19.80;28.50;;;;;;679898;29;1771;-80
2022/03/12 01:35:15;;;;;;;;;;;19.80;28.50;;;;;;680283;29;946;-81
2022/03/12 01:35:36;;;;;;;;;;;19.80;28.70;;;;;;680565;29;851;-80
2022/03/12 01:35:57;;;;;;;;;;;19.80;28.50;;;;;;682916;29;895;-80
2022/03/12 01:36:18;;;;;;;;;;;19.80;28.50;;;;;;683094;29;799;-80
2022/03/12 01:36:38;;;;;;;;;;;19.80;28.50;;;;;;683193;28;778;-79
2022/03/12 01:36:59;;;;;;;;;;;19.80;28.40;;;;;;681571;29;791;-79
2022/03/12 01:37:20;;;;;;;;;;;19.80;28.50;;;;;;683891;29;803;-81
2022/03/12 01:37:40;;;;;;;;;;;19.80;28.70;;;;;;683789;29;977;-81
2022/03/12 01:38:01;;;;;;;;;;;19.80;28.50;;;;;;680794;29;1189;-79
2022/03/12 01:38:27;;;;;;;;;;;19.80;28.50;;;;;;681314;29;795;-79
2022/03/12 01:38:52;;;;;;;;;;;19.80;28.50;;;;;;678467;29;783;-81
2022/03/12 01:39:12;;;;;;;;;;;19.80;28.50;;;;;;678376;29;1324;-81
2022/03/12 01:39:33;;;;;;;;;;;19.80;28.30;;;;;;678571;29;1245;-79
2022/03/12 01:39:54;;;;;;;;;;;19.80;28.50;;;;;;679411;29;1328;-78
2022/03/12 01:40:17;;;;;;;;;;;19.80;28.40;;;;;;680957;29;1293;-80
2022/03/12 01:40:38;;;;;;;;;;;19.80;28.60;;;;;;682147;29;1413;-78
2022/03/12 01:41:02;;;;;;;;;;;19.80;28.30;;;;;;683635;29;1236;-80
2022/03/12 01:41:28;;;;;;;;;;;19.80;28.40;;;;;;683526;29;1346;-80
2022/03/12 01:41:49;;;;;;;;;;;19.80;28.40;;;;;;683424;29;1446;-80
2022/03/12 01:42:10;;;;;;;;;;;19.80;28.30;;;;;;683849;29;1288;-79
2022/03/12 01:42:30;;;;;;;;;;;19.80;28.30;;;;;;683667;29;1276;-80
2022/03/12 01:42:51;;;;;;;;;;;19.80;28.30;;;;;;683862;28;870;-80
2022/03/12 01:43:12;;;;;;;;;;;19.80;28.20;;;;;;683862;29;806;-79
2022/03/12 01:43:36;;;;;;;;;;;19.80;28.30;;;;;;683954;29;863;-80
2022/03/12 01:43:59;;;;;;;;;;;19.80;28.30;;;;;;683712;29;1107;-79
2022/03/12 01:44:20;;;;;;;;;;;19.80;28.30;;;;;;688691;28;1037;-81
2022/03/12 01:44:41;;;;;;;;;;;19.80;28.30;;;;;;689449;28;861;-79
2022/03/12 01:45:02;;;;;;;;;;;19.80;28.30;;;;;;690702;28;1406;-78
2022/03/12 01:45:29;;;;;;;;;;;19.80;28.30;;;;;;692211;28;822;-79
2022/03/12 01:45:49;;;;;;;;;;;19.70;28.20;;;;;;692174;28;853;-80
2022/03/12 01:46:10;;;;;;;;;;;19.80;28.20;;;;;;692275;28;805;-79
2022/03/12 01:46:33;;;;;;;;;;;19.80;28.20;;;;;;692153;28;885;-79
2022/03/12 01:46:53;;;;;;;;;;;19.70;28.20;;;;;;692260;28;897;-78
2022/03/12 01:47:16;;;;;;;;;;;19.80;28.20;;;;;;692244;28;1024;-78
2022/03/12 01:47:36;;;;;;;;;;;19.70;28.20;;;;;;692236;28;829;-80
2022/03/12 01:47:59;;;;;;;;;;;19.80;28.20;;;;;;692152;28;778;-80
2022/03/12 01:48:20;;;;;;;;;;;19.80;28.20;;;;;;692284;28;794;-79
2022/03/12 01:48:47;;;;;;;;;;;19.80;28.30;;;;;;692180;28;810;-79
2022/03/12 01:49:18;;;;;;;;;;;19.80;28.20;;;;;;692202;28;826;-79
2022/03/12 01:49:39;;;;;;;;;;;19.70;28.20;;;;;;692246;28;822;-79
2022/03/12 01:49:59;;;;;;;;;;;19.80;28.30;;;;;;692181;28;936;-79
2022/03/12 01:50:21;;;;;;;;;;;19.70;29.20;;;;;;691914;28;1359;-79
2022/03/12 01:50:42;;;;;;;;;;;19.70;28.30;;;;;;692019;28;833;-79
2022/03/12 01:51:02;;;;;;;;;;;19.80;28.30;;;;;;692052;28;906;-80
2022/03/12 01:51:23;;;;;;;;;;;19.70;28.30;;;;;;692021;28;822;-80
2022/03/12 01:51:45;;;;;;;;;;;19.70;28.30;;;;;;692080;28;822;-80
2022/03/12 01:52:07;;;;;;;;;;;19.70;28.30;;;;;;692096;28;866;-80
2022/03/12 01:52:28;;;;;;;;;;;19.80;28.30;;;;;;692174;28;830;-79
2022/03/12 01:52:49;;;;;;;;;;;19.70;28.20;;;;;;692165;28;1918;-78
2022/03/12 01:53:10;;;;;;;;;;;19.70;28.30;;;;;;692157;28;885;-79
2022/03/12 01:53:31;;;;;;;;;;;19.70;28.20;;;;;;692072;28;861;-80
2022/03/12 01:53:51;;;;;;;;;;;19.70;28.20;;;;;;692200;28;723;-80
2022/03/12 01:54:13;;;;;;;;;;;19.70;28.20;;;;;;692315;28;849;-79
2022/03/12 01:54:34;;;;;;;;;;;19.70;28.30;;;;;;691921;28;1298;-80
2022/03/12 01:54:55;;;;;;;;;;;19.70;28.20;;;;;;689144;28;889;-79
2022/03/12 01:55:16;;;;;;;;;;;19.70;28.20;;;;;;689276;28;929;-80
2022/03/12 01:55:39;;;;;;;;;;;19.70;28.30;;;;;;689393;28;901;-80
2022/03/12 01:56:00;;;;;;;;;;;19.70;28.10;;;;;;689307;28;814;-79
2022/03/12 01:56:25;;;;;;;;;;;19.70;28.20;;;;;;690149;28;834;-80
2022/03/12 01:56:46;;;;;;;;;;;19.70;28.10;;;;;;692162;28;841;-80
2022/03/12 01:57:08;;;;;;;;;;;19.70;28.20;;;;;;692075;28;866;-79
2022/03/12 01:57:29;;;;;;;;;;;19.70;28.20;;;;;;692233;28;790;-80
2022/03/12 01:57:50;;;;;;;;;;;19.70;28.20;;;;;;694711;28;1456;-79
2022/03/12 01:58:11;;;;;;;;;;;19.70;28.20;;;;;;694728;28;798;-79
2022/03/12 01:58:32;;;;;;;;;;;19.70;28.20;;;;;;692269;28;1371;-80
2022/03/12 01:58:52;;;;;;;;;;;19.80;28.20;;;;;;691963;28;964;-80
2022/03/12 01:59:13;;;;;;;;;;;19.70;28.20;;;;;;692025;28;1455;-79
2022/03/12 01:59:34;;;;;;;;;;;19.70;28.20;;;;;;689065;28;1355;-81
2022/03/12 01:59:54;;;;;;;;;;;19.70;28.10;;;;;;689306;28;905;-78
2022/03/12 02:00:25;;;;;;;;;;;19.70;28.10;;;;;;689188;28;1307;-80
2022/03/12 02:00:50;;;;;;;;;;;19.70;28.20;;;;;;688568;28;1521;-81
2022/03/12 02:01:11;;;;;;;;;;;19.70;28.20;;;;;;686509;28;787;-81
2022/03/12 02:01:31;;;;;;;;;;;19.70;28.20;;;;;;688647;28;1459;-80
2022/03/12 02:01:52;;;;;;;;;;;19.70;28.10;;;;;;689547;28;810;-80
2022/03/12 02:02:13;;;;;;;;;;;19.70;28.10;;;;;;689534;28;969;-80
2022/03/12 02:02:35;;;;;;;;;;;19.70;28.20;;;;;;687611;28;1486;-80
2022/03/12 02:02:56;;;;;;;;;;;19.70;28.20;;;;;;689504;28;810;-80
2022/03/12 02:03:26;;;;;;;;;;;19.70;28.10;;;;;;689453;28;822;-80
2022/03/12 02:03:47;;;;;;;;;;;19.70;28.10;;;;;;689441;28;810;-79
2022/03/12 02:04:08;;;;;;;;;;;19.70;29.00;;;;;;688189;28;1522;-81
2022/03/12 02:04:29;;;;;;;;;;;19.70;28.10;;;;;;689264;28;1790;-80
2022/03/12 02:04:52;;;;;;;;;;;19.70;28.00;;;;;;687725;28;1499;-80
2022/03/12 02:05:13;;;;;;;;;;;19.70;28.10;;;;;;686804;28;799;-80
2022/03/12 02:05:34;;;;;;;;;;;19.70;28.10;;;;;;686688;28;843;-79
2022/03/12 02:05:56;;;;;;;;;;;19.70;28.10;;;;;;686925;28;1141;-78
2022/03/12 02:06:19;;;;;;;;;;;19.70;28.10;;;;;;686921;28;1561;-81
2022/03/12 02:06:43;;;;;;;;;;;19.70;28.10;;;;;;686801;28;1636;-80
2022/03/12 02:07:04;;;;;;;;;;;19.70;28.10;;;;;;688884;28;1495;-78
2022/03/12 02:07:25;;;;;;;;;;;19.70;28.10;;;;;;689499;28;896;-78
2022/03/12 02:07:46;;;;;;;;;;;19.70;28.90;;;;;;689501;28;862;-78
2022/03/12 02:08:11;;;;;;;;;;;19.70;28.10;;;;;;689158;28;1313;-79
2022/03/12 02:08:31;;;;;;;;;;;19.70;28.10;;;;;;688490;28;1151;-79
2022/03/12 02:08:55;;;;;;;;;;;19.70;28.10;;;;;;689560;28;867;-78
2022/03/12 02:09:15;;;;;;;;;;;19.70;28.00;;;;;;689511;28;1369;-78
2022/03/12 02:09:37;;;;;;;;;;;19.70;28.00;;;;;;689100;28;1404;-79
2022/03/12 02:09:59;;;;;;;;;;;19.70;28.10;;;;;;689479;28;1219;-79
2022/03/12 02:10:20;;;;;;;;;;;19.70;28.10;;;;;;689508;28;795;-79
2022/03/12 02:10:41;;;;;;;;;;;19.70;28.10;;;;;;689609;28;913;-78
2022/03/12 02:11:05;;;;;;;;;;;19.70;28.10;;;;;;689567;28;949;-79
2022/03/12 02:11:29;;;;;;;;;;;19.70;28.10;;;;;;689332;28;1354;-79